Time;durP1;ratioP1;P1;durP2;ratioP2;P2;SDS_P1;SDS_P2;PMS_P1;PMS_P2;Temp;Humidity;BMP_temperature;BMP_pressure;BME280_temperature;BME280_humidity;BME280_pressure;Samples;Min_cycle;Max_cycle;Signal;HPM_P1;HPM_P2
2022/06/30 00:00:10;;;;;;;3.95;3.25;;;;;;;21.44;50.31;93895.84;4969564;28;20038;-76
2022/06/30 00:02:36;;;;;;;4.13;3.50;;;;;;;21.39;50.52;93888.09;4970879;28;20029;-76
2022/06/30 00:05:01;;;;;;;4.13;3.72;;;;;;;21.43;50.21;93882.69;4974325;28;20027;-76
2022/06/30 00:07:27;;;;;;;4.50;3.50;;;;;;;21.27;50.67;93864.06;4972311;28;20027;-77
2022/06/30 00:09:52;;;;;;;5.03;3.55;;;;;;;21.29;50.48;93882.63;4972086;28;20046;-76
2022/06/30 00:12:17;;;;;;;4.30;3.50;;;;;;;21.10;51.16;93874.78;4970260;28;20514;-76
2022/06/30 00:14:43;;;;;;;4.97;3.72;;;;;;;21.10;51.67;93885.59;4971405;28;20023;-76
2022/06/30 00:17:09;;;;;;;7.05;4.03;;;;;;;21.06;51.54;93874.00;4969344;28;20403;-76
2022/06/30 00:19:35;;;;;;;3.88;3.58;;;;;;;20.86;51.56;93854.53;4971039;28;20035;-76
2022/06/30 00:22:01;;;;;;;4.43;4.03;;;;;;;20.90;51.86;93872.34;4969792;28;20126;-76
2022/06/30 00:24:26;;;;;;;4.63;3.83;;;;;;;20.93;51.81;93862.72;4970075;28;20044;-76
2022/06/30 00:26:51;;;;;;;4.13;3.58;;;;;;;20.88;52.20;93871.94;4972622;28;20046;-75
2022/06/30 00:29:17;;;;;;;5.70;3.65;;;;;;;20.73;51.98;93859.47;4976933;28;20121;-75
2022/06/30 00:31:42;;;;;;;5.22;4.45;;;;;;;20.94;52.16;93885.88;4969964;28;20494;-75
2022/06/30 00:34:08;;;;;;;4.82;4.00;;;;;;;20.98;52.18;93883.97;4970333;28;20324;-75
2022/06/30 00:36:34;;;;;;;4.47;4.07;;;;;;;20.81;52.44;93879.22;4968649;28;20039;-75
2022/06/30 00:38:59;;;;;;;7.10;4.28;;;;;;;20.80;52.63;93877.66;4968068;28;20039;-76
2022/06/30 00:41:25;;;;;;;6.93;4.35;;;;;;;20.67;52.79;93865.59;4971944;28;20566;-75
2022/06/30 00:43:51;;;;;;;7.32;4.28;;;;;;;20.75;52.73;93875.31;4970336;28;20554;-76
2022/06/30 00:46:17;;;;;;;7.97;4.13;;;;;;;20.75;52.80;93876.09;4969611;28;20031;-76
2022/06/30 00:48:43;;;;;;;4.25;3.35;;;;;;;20.80;52.85;93883.84;4969329;28;20045;-76
2022/06/30 00:51:09;;;;;;;4.80;3.72;;;;;;;20.70;52.76;93864.84;4970099;28;20054;-76
2022/06/30 00:53:38;;;;;;;7.72;4.03;;;;;;;20.79;52.59;93876.09;4970037;28;20057;-76
2022/06/30 00:56:05;;;;;;;5.07;3.92;;;;;;;20.80;52.77;93878.44;4969231;28;20487;-76
2022/06/30 00:58:35;;;;;;;5.88;3.90;;;;;;;20.74;52.91;93879.16;4969693;28;20503;-76
2022/06/30 01:01:01;;;;;;;7.93;4.90;;;;;;;20.64;52.43;93863.63;4968926;28;20030;-76
2022/06/30 01:03:26;;;;;;;6.00;4.32;;;;;;;20.54;52.73;93843.50;4967994;28;20030;-76
2022/06/30 01:05:53;;;;;;;4.45;4.05;;;;;;;20.74;52.51;93868.34;4966760;28;20035;-76
2022/06/30 01:08:19;;;;;;;5.18;4.13;;;;;;;20.59;52.71;93867.47;4970556;28;20398;-76
2022/06/30 01:13:28;;;;;;;4.05;3.65;;;;;;;20.65;52.81;93868.69;4972476;28;20038;-76
2022/06/30 01:15:54;;;;;;;5.05;4.05;;;;;;;20.48;52.99;93856.56;4975759;28;20454;-76
2022/06/30 01:18:19;;;;;;;6.43;5.32;;;;;;;20.54;52.96;93871.28;4970320;28;20116;-76
2022/06/30 01:20:45;;;;;;;4.75;3.92;;;;;;;20.32;52.87;93852.59;4968501;28;20072;-76
2022/06/30 01:23:10;;;;;;;5.07;4.03;;;;;;;20.32;52.99;93852.59;4970302;28;20442;-76
2022/06/30 01:25:36;;;;;;;4.60;4.18;;;;;;;20.40;52.97;93862.31;4969015;28;20031;-76
2022/06/30 01:28:02;;;;;;;5.30;4.13;;;;;;;20.48;53.08;93875.47;4969663;28;20041;-76
2022/06/30 01:30:28;;;;;;;5.95;3.78;;;;;;;20.46;52.68;93852.72;4969571;28;20043;-76
2022/06/30 01:32:54;;;;;;;5.38;4.30;;;;;;;20.40;52.98;93852.28;4971142;28;20045;-76
2022/06/30 01:35:19;;;;;;;9.20;3.92;;;;;;;20.54;52.34;93874.00;4969384;28;20687;-75
2022/06/30 01:37:56;;;;;;;5.25;4.18;;;;;;;20.58;52.22;93877.50;4971360;28;20039;-76
2022/06/30 01:40:24;;;;;;;4.28;3.88;;;;;;;20.40;52.07;93848.78;4986173;28;20462;-76
2022/06/30 01:42:50;;;;;;;5.10;4.18;;;;;;;20.44;52.29;93865.81;4969286;28;20045;-75
2022/06/30 01:45:16;;;;;;;4.78;3.58;;;;;;;20.36;52.30;93859.56;4971052;28;20066;-76
2022/06/30 01:47:42;;;;;;;5.63;3.85;;;;;;;20.29;52.28;93847.94;4969770;28;20022;-76
2022/06/30 01:50:11;;;;;;;5.93;3.50;;;;;;;20.42;52.32;93851.91;4970132;28;20023;-74
2022/06/30 01:52:36;;;;;;;4.63;4.07;;;;;;;20.43;52.17;93858.88;4969572;28;20176;-76
2022/06/30 01:55:03;;;;;;;4.45;3.47;;;;;;;20.09;52.42;93817.66;4969973;28;20446;-74
2022/06/30 01:57:28;;;;;;;5.03;3.85;;;;;;;20.36;52.40;93862.28;4970820;28;20027;-74
2022/06/30 01:59:54;;;;;;;4.63;4.15;;;;;;;20.36;52.61;93864.19;4974846;28;20049;-74
2022/06/30 02:02:19;;;;;;;6.82;4.07;;;;;;;20.13;52.69;93837.38;4973098;28;20030;-74
2022/06/30 02:04:48;;;;;;;10.68;5.57;;;;;;;20.15;52.67;93837.75;4971807;28;20058;-76
2022/06/30 02:07:18;;;;;;;4.25;3.85;;;;;;;20.29;52.96;93864.91;4974156;28;20041;-74
2022/06/30 02:09:44;;;;;;;5.18;4.22;;;;;;;20.26;52.57;93852.16;4970933;28;20477;-76
2022/06/30 02:14:55;;;;;;;4.93;3.63;;;;;;;20.33;52.49;93871.13;4973307;28;20644;-76
2022/06/30 02:17:20;;;;;;;6.47;4.15;;;;;;;20.14;52.90;93855.13;4979277;28;20096;-76
2022/06/30 02:19:45;;;;;;;4.57;3.85;;;;;;;20.06;53.30;93867.75;4972879;28;20038;-76
2022/06/30 02:22:11;;;;;;;5.97;3.40;;;;;;;20.00;53.26;93866.53;4972945;28;20039;-76
2022/06/30 02:24:36;;;;;;;7.55;4.72;;;;;;;19.93;53.15;93846.81;4972641;28;20061;-74
2022/06/30 02:27:02;;;;;;;5.95;3.55;;;;;;;20.13;53.25;93867.84;4972271;28;20043;-76
2022/06/30 02:29:27;;;;;;;6.18;4.47;;;;;;;20.19;52.87;93872.94;4973300;28;20029;-77
2022/06/30 02:31:53;;;;;;;5.15;4.00;;;;;;;20.19;52.94;93876.38;4970785;28;20031;-77
2022/06/30 02:34:19;;;;;;;5.25;4.07;;;;;;;20.16;52.86;93877.13;4973004;28;20031;-76
2022/06/30 02:36:44;;;;;;;4.20;3.53;;;;;;;20.13;52.67;93878.66;4971674;28;20108;-77
2022/06/30 02:39:09;;;;;;;4.50;3.63;;;;;;;20.06;52.66;93883.97;4973276;28;20035;-77
2022/06/30 02:41:35;;;;;;;4.40;3.67;;;;;;;20.01;52.87;93881.59;4971651;28;20112;-77
2022/06/30 02:44:02;;;;;;;9.68;4.60;;;;;;;19.77;52.98;93859.75;4970261;28;20019;-77
2022/06/30 02:46:28;;;;;;;4.50;3.53;;;;;;;19.79;53.02;93854.78;4974195;28;20474;-77
2022/06/30 02:48:53;;;;;;;4.85;3.80;;;;;;;19.79;52.87;93862.88;4973694;28;20026;-74
2022/06/30 02:51:19;;;;;;;4.43;3.22;;;;;;;19.81;52.84;93864.03;4971843;28;20027;-77
2022/06/30 02:53:44;;;;;;;7.45;4.35;;;;;;;19.69;53.12;93859.69;4970966;28;20086;-74
2022/06/30 02:56:11;;;;;;;4.80;3.60;;;;;;;19.82;53.30;93878.31;4970867;28;20022;-76
2022/06/30 02:58:37;;;;;;;9.85;3.53;;;;;;;19.71;53.34;93887.06;4971584;28;20651;-76
2022/06/30 03:01:03;;;;;;;4.32;2.97;;;;;;;19.87;52.66;93886.84;4969690;28;20125;-76
2022/06/30 03:03:28;;;;;;;3.08;2.60;;;;;;;19.93;52.77;93895.41;4972805;28;20550;-76
2022/06/30 03:05:53;;;;;;;3.80;3.40;;;;;;;19.90;52.65;93896.13;4971051;28;20037;-77
2022/06/30 03:08:19;;;;;;;5.80;3.40;;;;;;;19.72;52.62;93864.34;4971558;28;20034;-76
2022/06/30 03:10:44;;;;;;;6.53;3.40;;;;;;;19.72;52.57;93864.34;4972575;28;20089;-76
2022/06/30 03:13:10;;;;;;;4.25;2.90;;;;;;;19.75;52.65;93866.28;4971684;28;20494;-76
2022/06/30 03:15:36;;;;;;;4.35;3.40;;;;;;;19.67;53.11;93851.19;4969233;28;20034;-77
2022/06/30 03:18:01;;;;;;;3.83;2.95;;;;;;;19.75;52.93;93855.50;4973421;28;20065;-76
2022/06/30 03:20:27;;;;;;;3.33;2.67;;;;;;;19.59;53.27;93833.38;4970348;28;20151;-76
2022/06/30 03:22:52;;;;;;;4.03;3.42;;;;;;;19.83;53.12;93864.44;4971176;28;20049;-77
2022/06/30 03:25:17;;;;;;;9.10;3.75;;;;;;;19.98;52.59;93876.16;4977310;28;20883;-76
2022/06/30 03:27:43;;;;;;;4.03;2.70;;;;;;;19.94;52.78;93869.97;4971045;28;20460;-76
2022/06/30 03:30:09;;;;;;;7.47;3.10;;;;;;;19.96;53.01;93870.34;4970963;28;20045;-76
2022/06/30 03:32:34;;;;;;;4.07;3.03;;;;;;;19.93;52.85;93861.09;4971784;28;20022;-76
2022/06/30 03:35:00;;;;;;;17.27;4.18;;;;;;;20.03;52.63;93865.03;4978547;28;20509;-76
2022/06/30 03:37:25;;;;;;;8.82;3.42;;;;;;;19.99;52.57;93851.50;4970789;28;20050;-76
2022/06/30 03:39:50;;;;;;;4.70;3.78;;;;;;;20.11;52.75;93882.84;4971713;28;20507;-77
2022/06/30 03:42:16;;;;;;;5.57;3.20;;;;;;;20.06;52.93;93869.69;4971076;28;20141;-76
2022/06/30 03:44:41;;;;;;;3.88;3.30;;;;;;;20.19;53.11;93873.69;4974636;28;20047;-76
2022/06/30 03:47:07;;;;;;;3.45;3.15;;;;;;;20.16;53.31;93866.31;4970933;28;20078;-76
2022/06/30 03:49:32;;;;;;;4.28;3.83;;;;;;;20.24;53.50;93864.50;4968792;28;20447;-76
2022/06/30 03:51:58;;;;;;;4.03;3.63;;;;;;;20.41;53.73;93880.84;4970961;28;20514;-77
2022/06/30 03:54:23;;;;;;;3.45;3.10;;;;;;;20.45;53.83;93862.72;4969494;28;20411;-77
2022/06/30 03:56:49;;;;;;;3.55;2.90;;;;;;;20.48;53.25;93855.81;4970318;28;20406;-76
2022/06/30 03:59:14;;;;;;;3.90;3.50;;;;;;;20.53;53.00;93858.94;4970384;28;20113;-76
2022/06/30 04:01:40;;;;;;;4.40;3.72;;;;;;;20.50;53.41;93848.88;4971346;28;20081;-76
2022/06/30 04:04:06;;;;;;;6.60;4.13;;;;;;;20.72;51.95;93881.47;4975955;28;20042;-76
2022/06/30 04:06:31;;;;;;;5.30;4.53;;;;;;;20.53;51.74;93882.50;4971751;28;20031;-76
2022/06/30 04:08:57;;;;;;;5.55;4.65;;;;;;;20.64;51.93;93885.25;4969959;28;20039;-77
2022/06/30 04:11:22;;;;;;;6.55;4.93;;;;;;;20.69;51.89;93888.38;4971576;28;20572;-76
2022/06/30 04:13:48;;;;;;;6.60;4.10;;;;;;;20.73;51.86;93886.47;4969984;28;20470;-76
2022/06/30 04:16:13;;;;;;;8.98;5.40;;;;;;;20.84;51.63;93889.25;4970262;28;20458;-77
2022/06/30 04:18:39;;;;;;;7.18;4.15;;;;;;;20.88;51.60;93874.66;4967505;28;20042;-76
2022/06/30 04:21:04;;;;;;;5.47;4.97;;;;;;;21.02;51.64;93888.25;4972767;28;20041;-76
2022/06/30 04:23:30;;;;;;;4.88;4.20;;;;;;;21.06;50.89;93880.19;4969494;28;20029;-77
2022/06/30 04:25:55;;;;;;;5.90;4.78;;;;;;;21.06;50.57;93869.38;4972934;28;20502;-76
2022/06/30 04:28:20;;;;;;;5.90;4.53;;;;;;;21.13;51.58;93863.97;4970096;28;20113;-77
2022/06/30 04:33:30;;;;;;;11.20;5.93;;;;;;;21.20;51.74;93866.75;4969715;28;20033;-76
2022/06/30 04:35:55;;;;;;;6.43;5.30;;;;;;;21.39;52.10;93890.00;4970642;28;20399;-77
2022/06/30 04:38:20;;;;;;;8.05;5.35;;;;;;;21.39;51.79;93887.31;4970133;28;20029;-78
2022/06/30 04:43:30;;;;;;;9.63;6.63;;;;;;;21.30;51.86;93893.06;4968790;28;20486;-76
2022/06/30 04:45:56;;;;;;;10.20;5.72;;;;;;;21.27;51.72;93893.81;4967464;28;20288;-76
2022/06/30 04:48:22;;;;;;;9.90;6.22;;;;;;;20.96;52.79;93884.38;4970696;28;20057;-76
2022/06/30 04:50:48;;;;;;;9.18;6.00;;;;;;;21.11;52.73;93890.66;4967160;28;20047;-77
2022/06/30 04:53:13;;;;;;;8.85;5.25;;;;;;;21.16;52.76;93889.50;4969636;28;20383;-76
2022/06/30 04:55:39;;;;;;;6.43;5.80;;;;;;;21.33;52.87;93900.41;4967435;28;20034;-76
2022/06/30 04:58:05;;;;;;;8.07;6.20;;;;;;;21.58;52.92;93899.78;4964300;28;20096;-77
2022/06/30 05:00:30;;;;;;;8.18;6.70;;;;;;;21.59;52.05;93866.94;4969293;28;20400;-76
2022/06/30 05:02:56;;;;;;;7.35;5.72;;;;;;;21.66;51.58;93879.72;4969675;28;20099;-77
2022/06/30 05:05:21;;;;;;;8.82;6.13;;;;;;;21.66;51.03;93874.28;4968929;28;20045;-77
2022/06/30 05:07:47;;;;;;;10.45;6.35;;;;;;;21.68;51.03;93856.53;4967033;28;20071;-76
2022/06/30 05:10:12;;;;;;;11.45;7.45;;;;;;;21.70;50.47;93885.94;4969735;28;20070;-76
2022/06/30 05:12:37;;;;;;;8.23;5.90;;;;;;;21.73;51.45;93890.56;4970878;28;20065;-76
2022/06/30 05:15:03;;;;;;;9.95;6.60;;;;;;;21.84;50.50;93903.00;4967651;28;20050;-77
2022/06/30 05:17:29;;;;;;;8.52;6.60;;;;;;;21.74;50.64;93902.94;4965372;28;20034;-76
2022/06/30 05:19:54;;;;;;;6.32;5.63;;;;;;;21.84;51.08;93899.50;4965766;28;20445;-76
2022/06/30 05:22:19;;;;;;;8.02;5.82;;;;;;;21.23;51.12;93884.91;4958302;28;20129;-76
2022/06/30 05:27:29;;;;;;;8.05;6.30;;;;;;;21.76;50.48;93906.81;4965031;28;20050;-76
2022/06/30 05:29:55;;;;;;;7.30;6.15;;;;;;;21.78;51.19;93903.72;4966943;28;20051;-76
2022/06/30 05:32:20;;;;;;;7.68;6.22;;;;;;;22.10;50.89;93910.00;4971228;28;20524;-73
2022/06/30 05:34:46;;;;;;;8.60;6.10;;;;;;;22.12;50.45;93912.34;4972618;28;20042;-74
2022/06/30 05:37:12;;;;;;;7.10;6.15;;;;;;;22.11;49.89;93900.72;4974767;28;20419;-74
2022/06/30 05:39:38;;;;;;;18.42;7.40;;;;;;;22.01;49.64;93895.28;4968960;28;20133;-74
2022/06/30 05:42:04;;;;;;;12.02;6.05;;;;;;;22.34;50.40;93918.63;4971433;28;20565;-74
2022/06/30 05:44:30;;;;;;;9.13;6.68;;;;;;;21.90;50.24;93914.22;4965759;28;20055;-74
2022/06/30 05:46:56;;;;;;;7.65;6.10;;;;;;;22.02;51.00;93892.19;4971039;28;20318;-75
2022/06/30 05:49:22;;;;;;;7.47;5.88;;;;;;;22.46;50.75;93920.94;4971028;28;20038;-75
2022/06/30 05:51:48;;;;;;;11.25;7.50;;;;;;;22.61;49.54;93908.97;4970443;28;20130;-74
2022/06/30 05:54:13;;;;;;;10.80;5.82;;;;;;;22.58;49.81;93909.75;4970771;28;20036;-74
2022/06/30 05:56:39;;;;;;;10.15;7.15;;;;;;;22.70;48.99;93904.69;4971651;28;20015;-74
2022/06/30 05:59:04;;;;;;;14.68;6.50;;;;;;;22.68;48.91;93895.41;4970869;28;20031;-74
2022/06/30 06:01:30;;;;;;;9.68;6.82;;;;;;;22.66;49.54;93930.25;4970672;28;20153;-74
2022/06/30 06:03:55;;;;;;;10.90;7.05;;;;;;;22.30;48.68;93911.25;4972420;28;20124;-74
2022/06/30 06:06:20;;;;;;;10.85;7.13;;;;;;;22.65;49.27;93928.69;4970907;28;20038;-74
2022/06/30 06:08:46;;;;;;;10.77;6.35;;;;;;;23.04;48.36;93926.78;4978336;28;20030;-75
2022/06/30 06:11:11;;;;;;;8.60;6.95;;;;;;;23.22;48.27;93924.03;4971030;28;20034;-75
2022/06/30 06:13:36;;;;;;;9.65;6.47;;;;;;;23.17;47.28;93922.50;4969997;28;20038;-75
2022/06/30 06:16:05;;;;;;;9.73;7.45;;;;;;;23.29;47.36;93913.19;4969141;28;20046;-76
2022/06/30 06:18:30;;;;;;;10.48;6.72;;;;;;;23.20;47.55;93914.75;4970746;28;20034;-76
2022/06/30 06:20:56;;;;;;;11.10;7.60;;;;;;;23.10;48.23;93924.47;4969641;28;20045;-75
2022/06/30 06:23:21;;;;;;;9.52;6.82;;;;;;;22.91;48.39;93922.94;4971111;28;20022;-75
2022/06/30 06:25:47;;;;;;;10.02;7.40;;;;;;;23.30;48.73;93931.03;4970373;28;20433;-75
2022/06/30 06:30:56;;;;;;;9.65;7.88;;;;;;;23.71;48.32;93928.59;4971193;28;20044;-75
2022/06/30 06:33:21;;;;;;;12.18;8.95;;;;;;;23.45;47.94;93904.63;4970527;28;20894;-74
2022/06/30 06:35:47;;;;;;;13.52;8.63;;;;;;;23.71;47.84;93915.03;4969403;28;20055;-74
2022/06/30 06:38:12;;;;;;;9.40;8.05;;;;;;;23.87;47.33;93928.94;4970566;28;20701;-74
2022/06/30 06:40:38;;;;;;;14.30;8.32;;;;;;;24.05;47.47;93937.00;4969673;28;20114;-74
2022/06/30 06:43:03;;;;;;;9.48;8.38;;;;;;;24.20;46.49;93924.16;4970856;28;20042;-75
2022/06/30 06:45:28;;;;;;;12.07;9.32;;;;;;;23.95;47.25;93903.28;4966229;28;20616;-75
2022/06/30 06:47:54;;;;;;;13.23;10.77;;;;;;;24.06;47.86;93921.47;4970169;28;20105;-75
2022/06/30 06:50:19;;;;;;;14.25;10.05;;;;;;;24.12;46.65;93920.69;4970021;28;20461;-75
2022/06/30 06:52:45;;;;;;;12.93;10.80;;;;;;;24.01;46.68;93877.25;4970112;28;20519;-75
2022/06/30 06:55:10;;;;;;;11.80;9.32;;;;;;;24.34;47.27;93921.34;4969817;28;20659;-75
2022/06/30 06:57:37;;;;;;;14.98;10.70;;;;;;;24.19;46.89;93909.78;4969087;28;20117;-75
2022/06/30 07:00:04;;;;;;;13.25;10.73;;;;;;;24.01;46.81;93896.25;4970109;28;20031;-75
2022/06/30 07:02:30;;;;;;;16.52;10.65;;;;;;;23.94;48.05;93909.91;4969204;28;20033;-74
2022/06/30 07:04:55;;;;;;;14.57;9.60;;;;;;;24.02;47.37;93908.69;4971110;28;20303;-74
2022/06/30 07:07:20;;;;;;;17.70;10.63;;;;;;;23.78;47.44;93915.00;4971373;28;20061;-74
2022/06/30 07:09:46;;;;;;;16.00;10.07;;;;;;;24.12;48.42;93909.03;4970025;28;20046;-75
2022/06/30 07:12:11;;;;;;;14.07;9.80;;;;;;;24.34;47.31;93900.38;4969506;28;20417;-74
2022/06/30 07:14:36;;;;;;;14.63;10.02;;;;;;;24.17;47.01;93895.81;4973216;28;20028;-74
2022/06/30 07:17:02;;;;;;;15.07;9.38;;;;;;;24.28;46.27;93914.78;4971868;28;20675;-74
2022/06/30 07:19:27;;;;;;;11.25;8.65;;;;;;;24.12;47.41;93909.81;4967977;28;20302;-74
2022/06/30 07:21:53;;;;;;;8.48;7.60;;;;;;;24.29;48.38;93892.66;4968569;28;20399;-75
2022/06/30 07:24:18;;;;;;;10.50;8.77;;;;;;;24.58;47.36;93893.22;4971363;28;20080;-74
2022/06/30 07:26:44;;;;;;;11.05;8.73;;;;;;;24.52;46.99;93905.69;4971197;28;20124;-74
2022/06/30 07:29:09;;;;;;;12.45;10.00;;;;;;;24.72;47.25;93914.91;4969803;28;20307;-74
2022/06/30 07:31:35;;;;;;;11.10;8.55;;;;;;;24.72;46.25;93897.81;4971250;28;20093;-74
2022/06/30 07:34:00;;;;;;;13.45;8.63;;;;;;;24.85;45.26;93896.91;4973469;28;20049;-75
2022/06/30 07:36:26;;;;;;;14.15;10.15;;;;;;;24.56;45.54;93862.16;4969392;28;20046;-74
2022/06/30 07:38:51;;;;;;;12.23;8.98;;;;;;;24.83;44.74;93879.47;4966465;28;20518;-75
2022/06/30 07:41:18;;;;;;;11.80;8.18;;;;;;;24.56;46.72;93911.88;4968215;28;20517;-75
2022/06/30 07:43:43;;;;;;;12.18;8.95;;;;;;;24.92;46.07;93906.19;4969474;28;20035;-74
2022/06/30 07:46:09;;;;;;;9.98;7.80;;;;;;;24.95;44.62;93916.25;4969254;28;20140;-75
2022/06/30 07:48:35;;;;;;;10.55;7.43;;;;;;;24.94;45.16;93888.28;4964968;28;20046;-76
2022/06/30 07:51:00;;;;;;;8.40;7.60;;;;;;;25.15;44.96;93907.13;4971037;28;20049;-76
2022/06/30 07:53:26;;;;;;;8.35;7.28;;;;;;;25.16;44.53;93892.38;4967428;28;20030;-75
2022/06/30 07:55:51;;;;;;;7.43;6.32;;;;;;;25.21;44.10;93902.81;4971291;28;20571;-75
2022/06/30 07:58:17;;;;;;;9.52;7.85;;;;;;;25.33;43.89;93900.75;4970560;28;20414;-75
2022/06/30 08:00:42;;;;;;;7.63;6.82;;;;;;;25.42;43.11;93901.81;4968161;28;20047;-75
2022/06/30 08:03:08;;;;;;;11.10;6.55;;;;;;;25.59;43.49;93911.78;4968346;28;20108;-76
2022/06/30 08:05:33;;;;;;;9.30;6.47;;;;;;;25.65;41.23;93910.16;4968004;28;20022;-76
2022/06/30 08:07:59;;;;;;;6.72;6.03;;;;;;;25.65;42.47;93899.25;4971264;28;20061;-77
2022/06/30 08:10:24;;;;;;;6.75;6.03;;;;;;;25.74;43.59;93908.88;4968637;28;20043;-76
2022/06/30 08:12:50;;;;;;;6.70;6.00;;;;;;;25.66;42.49;93903.50;4967467;28;20034;-75
2022/06/30 08:15:16;;;;;;;7.93;6.13;;;;;;;25.09;42.21;93905.25;4966289;28;20042;-76
2022/06/30 08:17:41;;;;;;;7.65;6.60;;;;;;;25.22;43.11;93896.16;4968319;28;20596;-75
2022/06/30 08:20:07;;;;;;;8.20;6.68;;;;;;;25.32;42.86;93901.97;4966647;28;20042;-75
2022/06/30 08:22:33;;;;;;;8.00;6.20;;;;;;;25.33;42.43;93879.75;4969053;28;20097;-76
2022/06/30 08:24:59;;;;;;;6.85;5.00;;;;;;;25.39;41.95;93891.75;4976068;28;20054;-76
2022/06/30 08:27:24;;;;;;;7.03;5.55;;;;;;;25.41;41.17;93873.09;4968505;28;20038;-76
2022/06/30 08:29:50;;;;;;;6.63;5.45;;;;;;;25.50;41.65;93903.31;4968552;28;20046;-75
2022/06/30 08:32:17;;;;;;;7.18;5.78;;;;;;;25.27;40.98;93901.19;4969422;28;20034;-75
2022/06/30 08:34:42;;;;;;;6.40;5.80;;;;;;;24.83;42.16;93901.22;4971342;28;20125;-75
2022/06/30 08:37:08;;;;;;;8.63;6.38;;;;;;;24.64;42.93;93897.03;4969367;28;20037;-75
2022/06/30 08:42:21;;;;;;;10.80;6.43;;;;;;;24.38;43.85;93895.69;4961313;28;20065;-75
2022/06/30 08:45:13;;;;;;;7.75;6.18;;;;;;;24.49;44.85;93909.22;4960799;28;20481;-75
2022/06/30 08:47:37;;;;;;;6.72;5.47;;;;;;;24.84;43.36;93913.63;4962457;28;20597;-75
2022/06/30 08:50:04;;;;;;;6.78;5.85;;;;;;;24.82;43.72;93894.22;4962832;28;20026;-75
2022/06/30 08:52:32;;;;;;;6.10;5.18;;;;;;;25.21;42.62;93912.91;4968071;28;20046;-75
2022/06/30 08:54:59;;;;;;;7.88;5.38;;;;;;;25.23;43.16;93905.09;4968422;28;20042;-75
2022/06/30 08:57:25;;;;;;;6.50;5.07;;;;;;;25.22;43.25;93900.88;4968188;28;20058;-75
2022/06/30 08:59:52;;;;;;;11.38;5.35;;;;;;;25.21;42.68;93891.94;4963515;28;20457;-75
2022/06/30 09:02:18;;;;;;;6.75;5.53;;;;;;;25.35;41.41;93891.03;4968353;28;20110;-75
2022/06/30 09:04:44;;;;;;;5.78;4.68;;;;;;;25.24;40.59;93899.28;4970190;28;20030;-75
2022/06/30 09:07:11;;;;;;;6.82;5.53;;;;;;;25.34;41.37;93889.47;4969290;28;20037;-75
2022/06/30 09:09:36;;;;;;;6.72;4.63;;;;;;;25.36;41.75;93886.38;4972478;28;20042;-75
2022/06/30 09:12:02;;;;;;;8.35;4.70;;;;;;;25.57;42.98;93897.00;4975447;28;20034;-75
2022/06/30 09:14:38;;;;;;;6.35;5.32;;;;;;;25.69;42.28;93894.53;4974833;28;20041;-75
2022/06/30 09:17:06;;;;;;;5.22;4.72;;;;;;;25.46;41.24;93872.63;4971798;28;20491;-76
2022/06/30 09:19:33;;;;;;;5.22;4.43;;;;;;;25.24;42.11;93895.78;4973417;28;20482;-76
2022/06/30 09:22:03;;;;;;;6.63;5.18;;;;;;;25.34;41.79;93892.19;4972545;28;20065;-74
2022/06/30 09:24:29;;;;;;;7.10;5.40;;;;;;;25.63;41.99;93885.25;4973289;28;20038;-75
2022/06/30 09:27:19;;;;;;;5.88;4.20;;;;;;;25.74;44.62;93892.53;4974146;28;20546;-75
2022/06/30 09:29:49;;;;;;;6.18;5.55;;;;;;;25.84;41.56;93878.78;4969261;28;20035;-75
2022/06/30 09:32:15;;;;;;;5.45;4.95;;;;;;;25.91;40.76;93862.38;4972457;28;20034;-74
2022/06/30 09:34:42;;;;;;;6.45;4.07;;;;;;;26.17;39.63;93885.38;4971014;28;20046;-75
2022/06/30 09:37:24;;;;;;;4.18;3.58;;;;;;;26.12;39.41;93861.31;5000827;28;20110;-74
2022/06/30 09:39:53;;;;;;;5.97;4.15;;;;;;;26.32;40.38;93875.03;4970897;28;20035;-75
2022/06/30 09:42:45;;;;;;;6.10;4.80;;;;;;;26.53;38.74;93881.00;4972842;28;20034;-74
2022/06/30 09:45:13;;;;;;;9.27;5.07;;;;;;;26.29;39.49;93879.38;4969837;28;20055;-75
2022/06/30 09:47:55;;;;;;;6.97;4.75;;;;;;;26.00;40.14;93842.81;4961707;28;20595;-75
2022/06/30 09:50:21;;;;;;;4.72;4.22;;;;;;;26.32;40.33;93875.81;4971520;28;20553;-75
2022/06/30 09:53:07;;;;;;;6.28;4.40;;;;;;;26.46;39.79;93886.53;4974281;28;20060;-75
2022/06/30 09:55:45;;;;;;;6.47;5.00;;;;;;;26.51;39.41;93888.81;4970163;28;20030;-76
2022/06/30 09:58:16;;;;;;;10.77;4.50;;;;;;;26.51;37.73;93880.63;4977124;28;20097;-75
2022/06/30 10:00:47;;;;;;;5.60;5.05;;;;;;;26.46;39.02;93872.91;4970259;28;20066;-75
2022/06/30 10:03:12;;;;;;;6.43;5.43;;;;;;;26.47;38.15;93871.72;4970592;28;20458;-75
2022/06/30 10:05:43;;;;;;;5.50;4.20;;;;;;;26.52;39.28;93873.22;4970620;28;20120;-75
2022/06/30 10:08:09;;;;;;;7.38;5.70;;;;;;;26.59;39.14;93877.81;4972178;28;20053;-75
2022/06/30 10:10:35;;;;;;;7.45;5.10;;;;;;;26.58;37.72;93865.34;4967122;28;20530;-75
2022/06/30 10:13:01;;;;;;;6.60;4.32;;;;;;;26.53;38.50;93859.19;4970644;28;20035;-75
2022/06/30 10:15:32;;;;;;;9.25;5.65;;;;;;;26.55;37.70;93856.03;4970591;28;20062;-75
2022/06/30 10:18:00;;;;;;;6.57;5.18;;;;;;;26.65;37.61;93854.31;5001885;28;20046;-75
2022/06/30 10:20:28;;;;;;;6.45;4.32;;;;;;;26.76;37.17;93869.31;4970730;28;20027;-74
2022/06/30 10:22:54;;;;;;;5.35;4.28;;;;;;;26.80;36.65;93855.63;4968312;28;20053;-75
2022/06/30 10:25:20;;;;;;;4.00;3.67;;;;;;;26.74;38.41;93827.28;4967194;28;20034;-75
2022/06/30 10:27:46;;;;;;;5.43;4.05;;;;;;;26.83;38.91;93854.81;4965328;28;20058;-75
2022/06/30 10:30:25;;;;;;;5.03;4.38;;;;;;;26.63;37.38;93862.16;4960035;28;20126;-75
2022/06/30 10:33:00;;;;;;;5.47;4.45;;;;;;;26.55;38.33;93859.53;4962059;28;20122;-76
2022/06/30 10:35:41;;;;;;;4.75;4.20;;;;;;;26.74;38.48;93857.31;4981627;28;20035;-75
2022/06/30 10:38:28;;;;;;;4.82;3.47;;;;;;;26.87;38.60;93850.06;4986237;28;20137;-75
2022/06/30 10:41:14;;;;;;;5.65;3.90;;;;;;;26.80;36.54;93845.47;4987887;28;20047;-76
2022/06/30 10:44:04;;;;;;;3.75;3.35;;;;;;;26.86;36.24;93852.00;4984719;28;20106;-75
2022/06/30 10:46:35;;;;;;;3.38;2.97;;;;;;;26.86;36.01;93832.91;4984318;28;20118;-76
2022/06/30 10:49:11;;;;;;;3.55;3.25;;;;;;;26.94;38.42;93833.53;4983592;28;20043;-75
2022/06/30 10:51:38;;;;;;;3.00;2.42;;;;;;;27.12;35.41;93839.50;5000499;28;20425;-75
2022/06/30 10:54:03;;;;;;;3.08;2.78;;;;;;;27.21;34.06;93838.94;4985299;28;20047;-75
2022/06/30 10:56:54;;;;;;;4.78;2.63;;;;;;;27.15;33.06;93838.66;4979877;28;20026;-74
2022/06/30 10:59:30;;;;;;;2.42;2.22;;;;;;;26.96;34.18;93820.25;4988954;28;20031;-75
2022/06/30 11:02:07;;;;;;;6.10;2.53;;;;;;;27.14;33.85;93833.59;4977442;28;20056;-75
2022/06/30 11:04:40;;;;;;;2.85;2.47;;;;;;;26.72;34.28;93805.09;4977025;28;20629;-75
2022/06/30 11:07:14;;;;;;;4.68;2.78;;;;;;;26.97;35.40;93816.34;4987961;28;20034;-75
2022/06/30 11:09:49;;;;;;;2.72;2.53;;;;;;;27.09;33.91;93823.94;4984461;28;20565;-75
2022/06/30 11:12:24;;;;;;;3.08;2.67;;;;;;;27.16;35.67;93826.56;4980648;28;20124;-75
2022/06/30 11:14:51;;;;;;;2.92;2.53;;;;;;;27.18;35.27;93810.50;4984963;28;20045;-77
2022/06/30 11:17:19;;;;;;;3.58;3.22;;;;;;;27.10;35.79;93820.03;4984881;28;20042;-75
2022/06/30 11:19:46;;;;;;;3.38;2.67;;;;;;;27.23;36.44;93810.03;4984995;28;20035;-75
2022/06/30 11:22:16;;;;;;;3.42;3.13;;;;;;;27.10;35.87;93773.63;4984079;28;20035;-75
2022/06/30 11:24:45;;;;;;;3.53;3.22;;;;;;;27.21;35.49;93804.22;4986152;28;20035;-76
2022/06/30 11:27:17;;;;;;;3.25;2.75;;;;;;;27.28;35.34;93789.66;4977802;28;20045;-75
2022/06/30 11:29:45;;;;;;;2.63;2.42;;;;;;;27.30;33.56;93796.25;4977668;28;20026;-77
2022/06/30 11:32:11;;;;;;;3.90;2.75;;;;;;;27.37;35.05;93793.38;4995907;28;20033;-76
2022/06/30 11:34:40;;;;;;;3.15;2.55;;;;;;;27.33;35.32;93789.94;4974379;28;20069;-74
2022/06/30 11:37:07;;;;;;;4.28;2.92;;;;;;;27.21;34.80;93784.34;4977597;28;20034;-76
2022/06/30 11:39:32;;;;;;;2.65;2.45;;;;;;;27.26;33.91;93795.56;4983696;28;20372;-76
2022/06/30 11:41:59;;;;;;;3.78;2.92;;;;;;;27.32;34.87;93799.34;4986069;28;20081;-75
2022/06/30 11:44:38;;;;;;;5.38;2.92;;;;;;;27.45;35.69;93793.22;4984370;28;20030;-76
2022/06/30 11:47:17;;;;;;;4.78;3.38;;;;;;;27.46;35.35;93794.78;4986104;28;20110;-75
2022/06/30 11:49:44;;;;;;;2.67;2.47;;;;;;;27.56;36.34;93799.25;4980539;28;20110;-75